Time;durP1;ratioP1;P1;durP2;ratioP2;P2;SDS_P1;SDS_P2;PMS_P1;PMS_P2;Temp;Humidity;BMP_temperature;BMP_pressure;BME280_temperature;BME280_humidity;BME280_pressure;Samples;Min_cycle;Max_cycle;Signal;HPM_P1;HPM_P2
2022/01/28 00:01:53;;;;;;;25.00;3.33;;;4.90;99.90;;;;;;5018904;28;20044;-68
2022/01/28 00:04:18;;;;;;;13.50;3.37;;;4.90;99.90;;;;;;5012455;28;20034;-67
2022/01/28 00:06:44;;;;;;;8.05;1.33;;;4.90;99.90;;;;;;5008734;28;20291;-68
2022/01/28 00:09:10;;;;;;;12.23;1.08;;;5.00;99.90;;;;;;5011665;28;21678;-68
2022/01/28 00:11:35;;;;;;;9.18;1.70;;;5.10;99.90;;;;;;5009997;28;20064;-68
2022/01/28 00:14:22;;;;;;;23.77;1.30;;;5.10;99.90;;;;;;5019546;28;20169;-68
2022/01/28 00:38:35;;;;;;;12.25;1.60;;;5.10;99.90;;;;;;5023859;28;20037;-68
2022/01/28 00:41:01;;;;;;;11.35;1.48;;;5.10;99.90;;;;;;5013321;28;20404;-67
2022/01/28 00:43:27;;;;;;;15.02;1.45;;;5.00;99.90;;;;;;5030077;28;20068;-67
2022/01/28 00:45:53;;;;;;;9.95;0.82;;;5.00;99.90;;;;;;5022380;28;20038;-68
2022/01/28 00:48:19;;;;;;;16.95;2.00;;;5.10;99.90;;;;;;5015790;28;20083;-67
2022/01/28 00:50:45;;;;;;;16.90;1.70;;;5.10;99.90;;;;;;5010123;28;20050;-68
2022/01/28 00:53:11;;;;;;;3.53;0.85;;;5.00;99.90;;;;;;5024910;28;20033;-68
2022/01/28 00:55:37;;;;;;;25.95;3.15;;;5.00;99.90;;;;;;5004554;28;20091;-74
2022/01/28 00:58:03;;;;;;;13.95;1.63;;;5.00;99.90;;;;;;5024358;28;20113;-68
2022/01/28 01:00:29;;;;;;;14.98;1.98;;;5.00;99.90;;;;;;5022586;28;20124;-68
2022/01/28 01:02:55;;;;;;;10.80;1.52;;;5.10;99.90;;;;;;5021994;28;20140;-68
2022/01/28 01:05:22;;;;;;;20.45;2.33;;;5.10;99.90;;;;;;5006479;28;20040;-68
2022/01/28 01:07:47;;;;;;;17.05;2.60;;;5.20;99.90;;;;;;5020435;28;20132;-68
2022/01/28 01:10:13;;;;;;;16.45;2.80;;;5.20;99.90;;;;;;5006302;28;20096;-68
2022/01/28 01:12:48;;;;;;;11.88;1.77;;;5.20;99.90;;;;;;5021067;28;20109;-67
2022/01/28 01:15:18;;;;;;;13.32;1.27;;;5.30;99.90;;;;;;5021528;28;20034;-68
2022/01/28 01:21:08;;;;;;;18.42;1.58;;;5.30;99.90;;;;;;5020742;28;20390;-70
2022/01/28 01:23:09;;;;;;;10.80;0.85;;;5.30;99.90;;;;;;5007359;28;20061;-68
2022/01/28 01:25:47;;;;;;;5.95;1.33;;;5.40;99.90;;;;;;5021928;28;20052;-68
2022/01/28 01:28:14;;;;;;;13.68;1.33;;;5.40;99.90;;;;;;5020903;28;20398;-68
2022/01/28 01:30:42;;;;;;;11.85;1.80;;;5.50;99.90;;;;;;5014025;28;20466;-66
2022/01/28 01:33:09;;;;;;;20.15;2.45;;;5.50;99.90;;;;;;5010938;28;20532;-67
2022/01/28 01:35:35;;;;;;;10.93;0.95;;;5.50;99.90;;;;;;5022294;28;20111;-67
2022/01/28 01:38:03;;;;;;;16.20;1.15;;;5.50;99.90;;;;;;5026203;28;20367;-68
2022/01/28 01:40:50;;;;;;;8.57;1.45;;;5.50;99.90;;;;;;5039106;28;20039;-67
2022/01/28 01:43:34;;;;;;;19.13;2.53;;;5.50;99.90;;;;;;5017986;28;20049;-68
2022/01/28 01:54:09;;;;;;;9.57;1.77;;;5.50;99.90;;;;;;5020378;28;20041;-68
2022/01/28 01:56:37;;;;;;;5.47;1.77;;;5.60;99.90;;;;;;5023271;28;20039;-70
2022/01/28 01:59:03;;;;;;;7.63;1.52;;;5.60;99.90;;;;;;5024303;28;20565;-68
2022/01/28 02:01:29;;;;;;;9.98;1.83;;;5.60;99.90;;;;;;5022183;28;20112;-68
2022/01/28 02:03:54;;;;;;;9.82;2.00;;;5.60;99.90;;;;;;5023944;28;20124;-68
2022/01/28 02:06:23;;;;;;;10.93;1.15;;;5.60;99.90;;;;;;5024972;28;20036;-68
2022/01/28 02:08:50;;;;;;;9.90;1.20;;;5.70;99.90;;;;;;5022585;28;20044;-68
2022/01/28 02:11:16;;;;;;;9.48;1.13;;;5.80;99.90;;;;;;5020185;28;20042;-68
2022/01/28 02:13:47;;;;;;;4.70;0.68;;;5.70;99.90;;;;;;5022812;28;20046;-68
2022/01/28 02:16:13;;;;;;;12.02;1.40;;;5.80;99.90;;;;;;5020294;28;20030;-68
2022/01/28 02:18:38;;;;;;;8.30;1.05;;;5.70;99.90;;;;;;5022855;28;20652;-71
2022/01/28 02:21:07;;;;;;;7.57;1.20;;;5.70;99.90;;;;;;5020972;28;20042;-68
2022/01/28 02:23:34;;;;;;;13.75;1.80;;;5.70;99.90;;;;;;5022617;28;20065;-67
2022/01/28 02:26:01;;;;;;;14.68;2.13;;;5.70;99.90;;;;;;5021298;28;20673;-68
2022/01/28 02:28:30;;;;;;;10.68;1.60;;;5.70;99.90;;;;;;5022057;28;20084;-68
2022/01/28 02:30:55;;;;;;;3.45;1.50;;;5.70;99.90;;;;;;5011276;28;20037;-68
2022/01/28 02:33:24;;;;;;;4.55;1.13;;;5.60;99.90;;;;;;5012051;28;20038;-68
2022/01/28 02:35:51;;;;;;;15.05;1.08;;;5.60;99.90;;;;;;5012753;28;20045;-68
2022/01/28 02:38:20;;;;;;;6.28;1.42;;;5.70;99.90;;;;;;5020852;28;20418;-68
2022/01/28 02:40:53;;;;;;;12.52;1.92;;;5.70;99.90;;;;;;5012607;28;20082;-68
2022/01/28 02:45:49;;;;;;;17.60;1.40;;;5.70;99.90;;;;;;5020296;28;20042;-68
2022/01/28 02:48:21;;;;;;;28.02;1.63;;;5.70;99.90;;;;;;5013305;28;20033;-67
2022/01/28 02:51:01;;;;;;;12.75;1.08;;;5.70;99.90;;;;;;5010065;28;20038;-67
2022/01/28 02:53:49;;;;;;;8.27;1.90;;;5.80;99.90;;;;;;5021175;28;20037;-66
2022/01/28 02:56:35;;;;;;;4.72;1.05;;;5.70;99.90;;;;;;5019990;28;20095;-68
2022/01/28 02:59:01;;;;;;;12.13;2.00;;;5.60;99.90;;;;;;5019066;28;20038;-67
2022/01/28 03:01:26;;;;;;;17.35;2.45;;;5.60;99.90;;;;;;5011462;28;20089;-68
2022/01/28 03:03:55;;;;;;;8.63;1.00;;;5.50;99.90;;;;;;5020759;28;20045;-68
2022/01/28 03:06:21;;;;;;;8.15;1.33;;;5.50;99.90;;;;;;5020882;28;20037;-68
2022/01/28 03:08:57;;;;;;;10.68;1.05;;;5.50;99.90;;;;;;5021395;28;20041;-67
2022/01/28 03:16:22;;;;;;;8.82;1.05;;;5.30;99.90;;;;;;5021502;28;20049;-68
2022/01/28 03:18:55;;;;;;;12.50;2.58;;;5.20;99.90;;;;;;5011487;28;20080;-68
2022/01/28 03:23:51;;;;;;;12.80;1.25;;;5.10;99.90;;;;;;5020690;28;20052;-68
2022/01/28 03:26:16;;;;;;;9.15;0.60;;;5.20;99.90;;;;;;5020423;28;20063;-68
2022/01/28 03:28:42;;;;;;;11.48;1.75;;;5.10;99.90;;;;;;5021997;28;20072;-68
2022/01/28 03:31:08;;;;;;;9.82;1.13;;;5.10;99.90;;;;;;5022875;28;20057;-67
2022/01/28 03:33:34;;;;;;;13.38;2.40;;;5.00;99.90;;;;;;5009459;28;20112;-68
2022/01/28 03:36:02;;;;;;;9.23;1.08;;;4.90;99.90;;;;;;5021261;28;20044;-65
2022/01/28 03:38:28;;;;;;;9.80;2.22;;;4.90;99.90;;;;;;5010027;28;20049;-67
2022/01/28 03:40:56;;;;;;;6.35;1.23;;;5.00;99.90;;;;;;5020265;28;20038;-68
2022/01/28 03:43:22;;;;;;;10.38;0.90;;;4.90;99.90;;;;;;5013466;28;20500;-68
2022/01/28 03:45:47;;;;;;;9.98;1.70;;;4.90;99.90;;;;;;5010335;28;20038;-68
2022/01/28 03:48:13;;;;;;;15.10;1.40;;;4.80;99.90;;;;;;5021475;28;20033;-68
2022/01/28 03:50:39;;;;;;;15.18;1.38;;;4.90;99.90;;;;;;5018451;28;20057;-67
2022/01/28 03:53:06;;;;;;;11.73;1.73;;;4.90;99.90;;;;;;5021910;28;20044;-68
2022/01/28 03:55:31;;;;;;;16.00;2.72;;;5.00;99.90;;;;;;5009507;28;20057;-68
2022/01/28 03:57:57;;;;;;;7.38;0.90;;;5.00;99.90;;;;;;5011883;28;20118;-67
2022/01/28 04:00:26;;;;;;;11.55;0.98;;;5.00;99.90;;;;;;5009975;28;20449;-69
2022/01/28 04:03:03;;;;;;;8.02;1.42;;;5.00;99.90;;;;;;5020326;28;20049;-68
2022/01/28 04:13:48;;;;;;;14.40;2.63;;;4.90;99.90;;;;;;5018525;28;20195;-68
2022/01/28 04:16:31;;;;;;;11.93;1.50;;;4.90;99.90;;;;;;5020513;28;20033;-68
2022/01/28 04:18:57;;;;;;;3.90;0.82;;;4.90;99.90;;;;;;5020747;28;20516;-67
2022/01/28 04:21:23;;;;;;;11.70;1.00;;;4.80;99.90;;;;;;5019261;28;20037;-68
2022/01/28 04:23:48;;;;;;;8.55;1.00;;;4.70;99.90;;;;;;5019645;28;20046;-68
2022/01/28 04:26:14;;;;;;;9.45;1.15;;;4.70;99.90;;;;;;5020993;28;20116;-69
2022/01/28 04:28:40;;;;;;;6.22;1.45;;;4.70;99.90;;;;;;5009031;28;20045;-73
2022/01/28 04:31:06;;;;;;;10.95;0.88;;;4.60;99.90;;;;;;5021431;28;20116;-68
2022/01/28 04:33:32;;;;;;;13.27;1.52;;;4.60;99.90;;;;;;5020132;28;20037;-67
2022/01/28 04:35:57;;;;;;;5.75;0.55;;;4.50;99.90;;;;;;5021356;28;20501;-69
2022/01/28 04:38:33;;;;;;;17.10;1.48;;;4.40;99.90;;;;;;5019481;28;20048;-68
2022/01/28 04:41:12;;;;;;;18.15;0.65;;;4.40;99.90;;;;;;5011309;28;20049;-68
2022/01/28 04:44:17;;;;;;;8.85;0.85;;;4.30;99.90;;;;;;5022930;28;20118;-68
2022/01/28 04:46:41;;;;;;;10.55;1.63;;;4.20;99.90;;;;;;5017488;28;20057;-68
2022/01/28 04:49:14;;;;;;;10.00;2.33;;;4.20;99.90;;;;;;5018256;28;20490;-68
2022/01/28 04:54:46;;;;;;;9.75;1.00;;;4.20;99.90;;;;;;5018829;28;20421;-68
2022/01/28 05:09:09;;;;;;;10.95;0.90;;;4.40;99.90;;;;;;4923015;29;20559;-68
2022/01/28 05:27:23;;;;;;;10.23;1.05;;;4.30;99.90;;;;;;5024365;28;20548;-68
2022/01/28 05:29:49;;;;;;;10.45;0.98;;;4.30;99.90;;;;;;5022212;28;20033;-69
2022/01/28 05:32:14;;;;;;;17.75;1.08;;;4.20;99.90;;;;;;5023162;28;20057;-69
2022/01/28 05:34:40;;;;;;;9.20;1.08;;;4.20;99.90;;;;;;5022600;28;20041;-68
2022/01/28 05:37:07;;;;;;;7.88;1.55;;;4.10;99.90;;;;;;5021403;28;20060;-69
2022/01/28 05:39:34;;;;;;;12.15;1.02;;;4.00;99.90;;;;;;5024519;28;20052;-68
2022/01/28 05:42:00;;;;;;;16.17;2.00;;;4.00;99.90;;;;;;5016035;28;22239;-68
2022/01/28 05:44:27;;;;;;;9.05;1.75;;;3.90;99.90;;;;;;5011483;28;20042;-68
2022/01/28 05:46:56;;;;;;;6.18;1.30;;;3.90;99.90;;;;;;5023483;28;20033;-67
2022/01/28 05:49:22;;;;;;;9.70;0.80;;;3.90;99.90;;;;;;5021254;28;20511;-68
2022/01/28 05:51:48;;;;;;;13.13;1.10;;;3.90;99.90;;;;;;5022403;28;20144;-68
2022/01/28 05:54:13;;;;;;;4.78;1.10;;;4.00;99.90;;;;;;5022418;28;20180;-68
2022/01/28 05:56:39;;;;;;;5.93;0.85;;;4.10;99.90;;;;;;5012541;28;20171;-67
2022/01/28 05:59:05;;;;;;;13.90;1.33;;;4.10;99.90;;;;;;5023191;28;20071;-68
2022/01/28 06:01:31;;;;;;;9.90;1.52;;;4.10;99.90;;;;;;5020635;28;20030;-68
2022/01/28 06:03:57;;;;;;;8.65;1.60;;;4.00;99.90;;;;;;5023505;28;20038;-68
2022/01/28 06:06:24;;;;;;;7.35;1.20;;;4.00;99.90;;;;;;5011337;28;20201;-68
2022/01/28 06:08:51;;;;;;;11.38;1.33;;;4.00;99.90;;;;;;5013816;28;20398;-68
2022/01/28 06:11:18;;;;;;;19.23;3.08;;;4.10;99.90;;;;;;5021439;28;20041;-67
2022/01/28 06:13:44;;;;;;;8.02;1.42;;;4.00;99.90;;;;;;5021968;28;20034;-67
2022/01/28 06:16:10;;;;;;;12.65;1.95;;;4.10;99.90;;;;;;5022523;28;20033;-68
2022/01/28 06:18:36;;;;;;;9.07;1.40;;;4.10;99.90;;;;;;5021209;28;20053;-67
2022/01/28 06:21:03;;;;;;;17.63;1.42;;;4.20;99.90;;;;;;5022424;28;20033;-67
2022/01/28 06:23:28;;;;;;;7.50;0.85;;;4.20;99.90;;;;;;5010757;28;20033;-68
2022/01/28 06:25:54;;;;;;;9.70;1.58;;;4.20;99.90;;;;;;5023243;28;20072;-68
2022/01/28 06:28:20;;;;;;;32.72;1.85;;;4.20;99.90;;;;;;5020677;28;20061;-68
2022/01/28 06:30:45;;;;;;;10.07;1.67;;;4.20;99.90;;;;;;5021690;28;20026;-67
2022/01/28 06:33:12;;;;;;;12.68;1.73;;;4.20;99.90;;;;;;5021353;28;20114;-67
2022/01/28 06:35:39;;;;;;;7.88;0.80;;;4.20;99.90;;;;;;5012056;28;20037;-67
2022/01/28 06:38:05;;;;;;;3.95;0.82;;;4.10;99.90;;;;;;5022362;28;20041;-69
2022/01/28 06:40:31;;;;;;;9.60;1.58;;;4.10;99.90;;;;;;5020251;28;20034;-68
2022/01/28 06:42:56;;;;;;;7.20;1.23;;;4.00;99.90;;;;;;5014820;28;20072;-68
2022/01/28 06:45:22;;;;;;;11.65;1.60;;;3.90;99.90;;;;;;5020150;28;20034;-68
2022/01/28 06:47:47;;;;;;;6.07;1.30;;;3.80;99.90;;;;;;5022073;28;20029;-68
2022/01/28 06:50:13;;;;;;;6.93;1.00;;;3.80;99.90;;;;;;5020708;28;20460;-68
2022/01/28 06:52:39;;;;;;;5.85;0.90;;;3.80;99.90;;;;;;5021213;28;20030;-67
2022/01/28 06:55:06;;;;;;;11.82;1.30;;;3.80;99.90;;;;;;5021730;28;20041;-68
2022/01/28 06:57:32;;;;;;;8.43;0.88;;;3.80;99.90;;;;;;5010702;28;20030;-68
2022/01/28 06:59:57;;;;;;;10.75;0.88;;;3.80;99.90;;;;;;5022105;28;20033;-68
2022/01/28 07:02:23;;;;;;;7.18;0.82;;;3.90;99.90;;;;;;5019581;28;20397;-68
2022/01/28 07:04:49;;;;;;;6.10;1.05;;;3.90;99.90;;;;;;5012685;28;20034;-67
2022/01/28 07:07:15;;;;;;;13.60;1.98;;;4.00;99.90;;;;;;5020708;28;20543;-67
2022/01/28 07:09:40;;;;;;;6.82;1.20;;;4.00;99.90;;;;;;5021393;28;20067;-70
2022/01/28 07:12:07;;;;;;;9.07;2.00;;;4.00;99.90;;;;;;5021260;28;20053;-67
2022/01/28 07:14:32;;;;;;;6.35;0.90;;;4.10;99.90;;;;;;5011518;28;20053;-68
2022/01/28 07:16:58;;;;;;;7.53;1.20;;;4.10;99.90;;;;;;5022183;28;20051;-68
2022/01/28 07:19:24;;;;;;;9.00;1.60;;;4.10;99.90;;;;;;5019942;28;20053;-69
2022/01/28 07:21:50;;;;;;;17.52;1.95;;;4.20;99.90;;;;;;5012087;28;20045;-70
2022/01/28 07:24:15;;;;;;;9.13;1.13;;;4.20;99.90;;;;;;5019994;28;20486;-67
2022/01/28 07:26:41;;;;;;;9.32;1.00;;;4.10;99.90;;;;;;5011295;28;20401;-67
2022/01/28 07:29:09;;;;;;;9.07;1.27;;;4.10;99.90;;;;;;5021000;28;20081;-68
2022/01/28 07:31:36;;;;;;;8.05;1.08;;;4.00;99.90;;;;;;5020224;28;20116;-68
2022/01/28 07:34:02;;;;;;;6.43;1.75;;;4.00;99.90;;;;;;5020973;28;20079;-68
2022/01/28 07:36:27;;;;;;;10.43;1.73;;;4.00;99.90;;;;;;5008909;28;20038;-68
2022/01/28 07:38:53;;;;;;;6.50;1.38;;;3.90;99.90;;;;;;5027451;28;20049;-68
2022/01/28 07:41:18;;;;;;;10.00;1.15;;;3.90;99.90;;;;;;5022547;28;20033;-67
2022/01/28 07:43:47;;;;;;;7.80;1.60;;;3.90;99.90;;;;;;5021876;28;20064;-67
2022/01/28 07:46:14;;;;;;;7.00;1.00;;;3.90;99.90;;;;;;5018774;28;20037;-68
2022/01/28 07:48:39;;;;;;;10.68;1.05;;;4.00;99.90;;;;;;5020843;28;20080;-68
2022/01/28 07:51:05;;;;;;;9.65;0.90;;;4.00;99.90;;;;;;5011100;28;20033;-68
2022/01/28 07:53:30;;;;;;;10.27;1.42;;;4.00;99.90;;;;;;5021203;28;20151;-68
2022/01/28 07:55:56;;;;;;;8.10;1.13;;;4.00;99.90;;;;;;5018832;28;20038;-68
2022/01/28 07:58:22;;;;;;;10.75;1.02;;;4.00;99.90;;;;;;5004553;28;20029;-68
2022/01/28 08:00:48;;;;;;;12.25;1.30;;;3.90;99.90;;;;;;5020584;28;20030;-68
2022/01/28 08:03:13;;;;;;;9.27;1.58;;;3.90;99.90;;;;;;5003819;28;20044;-68
2022/01/28 08:05:39;;;;;;;7.68;1.27;;;3.90;99.90;;;;;;5019868;28;20033;-68
2022/01/28 08:08:07;;;;;;;8.50;1.55;;;3.80;99.90;;;;;;5001864;28;20034;-68
2022/01/28 08:10:33;;;;;;;13.13;1.95;;;3.80;99.90;;;;;;5019122;28;20029;-67
2022/01/28 08:13:03;;;;;;;4.97;1.13;;;3.80;99.90;;;;;;5019040;28;20022;-68
2022/01/28 08:15:29;;;;;;;10.57;2.08;;;3.70;99.90;;;;;;5020056;28;20034;-68
2022/01/28 08:17:55;;;;;;;6.10;1.02;;;3.70;99.90;;;;;;5017448;28;20033;-68
2022/01/28 08:20:21;;;;;;;10.18;1.60;;;3.70;99.90;;;;;;5020437;28;20437;-68
2022/01/28 08:22:52;;;;;;;8.57;1.15;;;3.70;99.90;;;;;;5017151;28;20057;-68
2022/01/28 08:25:18;;;;;;;;;;;3.70;99.90;;;;;;5011817;28;20517;-69
2022/01/28 08:27:45;;;;;;;10.57;1.08;;;3.70;99.90;;;;;;5008106;28;20459;-68
2022/01/28 08:30:16;;;;;;;14.45;1.30;;;3.70;99.90;;;;;;5010645;28;20045;-68
2022/01/28 08:32:42;;;;;;;6.40;1.48;;;3.70;99.90;;;;;;5008262;28;20038;-68
2022/01/28 08:35:09;;;;;;;9.23;1.30;;;3.80;99.90;;;;;;5017488;28;20044;-68
2022/01/28 08:37:35;;;;;;;14.80;2.10;;;3.80;99.90;;;;;;5019597;28;20062;-68
2022/01/28 08:40:00;;;;;;;34.42;2.10;;;3.80;99.90;;;;;;5019246;28;20116;-68
2022/01/28 08:42:27;;;;;;;7.78;1.92;;;3.90;99.90;;;;;;5009465;28;20033;-68
2022/01/28 08:44:52;;;;;;;7.68;1.23;;;3.90;99.90;;;;;;5021149;28;20038;-68
2022/01/28 08:47:18;;;;;;;11.48;1.30;;;4.00;99.90;;;;;;5019147;28;20449;-66
2022/01/28 08:49:45;;;;;;;8.27;1.50;;;4.10;99.90;;;;;;5025340;28;20044;-68
2022/01/28 08:52:10;;;;;;;7.47;1.20;;;4.20;99.90;;;;;;5018921;28;20576;-66
2022/01/28 08:54:36;;;;;;;17.90;3.03;;;4.30;99.90;;;;;;5019819;28;20132;-68
2022/01/28 08:57:01;;;;;;;9.52;1.40;;;4.30;99.90;;;;;;5018771;28;20030;-67
2022/01/28 08:59:27;;;;;;;13.23;2.45;;;4.40;99.90;;;;;;5021536;28;20030;-67
2022/01/28 09:01:52;;;;;;;11.32;1.50;;;4.50;99.90;;;;;;5023730;28;20183;-68
2022/01/28 09:04:18;;;;;;;13.10;3.83;;;4.60;99.90;;;;;;5020861;28;20055;-68
2022/01/28 09:06:45;;;;;;;6.13;1.25;;;4.70;99.90;;;;;;5013956;28;20042;-68
2022/01/28 09:09:11;;;;;;;10.30;1.95;;;4.90;99.90;;;;;;5021124;28;20096;-68
2022/01/28 09:14:12;;;;;;;15.95;1.83;;;5.20;99.90;;;;;;5023867;28;20098;-68
2022/01/28 09:16:38;;;;;;;8.73;2.00;;;5.20;99.90;;;;;;5005300;28;20088;-67
2022/01/28 09:19:04;;;;;;;6.60;1.80;;;5.20;99.90;;;;;;5021207;28;20061;-68
2022/01/28 09:21:29;;;;;;;7.22;1.42;;;5.20;99.90;;;;;;5021486;28;20029;-68
2022/01/28 09:23:55;;;;;;;21.10;1.13;;;5.20;99.90;;;;;;5022468;28;20037;-68
2022/01/28 09:26:20;;;;;;;14.07;3.45;;;5.20;99.90;;;;;;5011495;28;20037;-68
2022/01/28 09:28:46;;;;;;;8.07;1.80;;;5.20;99.90;;;;;;5023314;28;20036;-68
2022/01/28 09:31:11;;;;;;;10.05;2.30;;;5.20;99.90;;;;;;5023425;28;20025;-68
2022/01/28 09:33:37;;;;;;;10.35;1.70;;;5.30;99.90;;;;;;5003356;28;20060;-67
2022/01/28 09:36:07;;;;;;;8.32;0.90;;;5.40;99.90;;;;;;5021785;28;20080;-68
2022/01/28 09:38:33;;;;;;;9.95;1.33;;;5.50;99.90;;;;;;5003555;28;20432;-68
2022/01/28 09:41:04;;;;;;;15.48;2.13;;;5.60;99.90;;;;;;5020957;28;20030;-68
2022/01/28 09:43:30;;;;;;;10.55;2.13;;;5.80;99.90;;;;;;5034871;28;20042;-66
2022/01/28 09:45:55;;;;;;;10.07;1.48;;;6.00;99.90;;;;;;5022720;28;20585;-68
2022/01/28 09:48:22;;;;;;;17.13;2.38;;;6.20;99.90;;;;;;5021782;28;20092;-68
2022/01/28 09:50:48;;;;;;;11.48;1.50;;;6.30;99.90;;;;;;5024148;28;20053;-67
2022/01/28 09:53:15;;;;;;;13.18;1.48;;;6.40;99.90;;;;;;5024290;28;20517;-68
2022/01/28 09:55:41;;;;;;;11.10;1.30;;;6.50;99.90;;;;;;5024366;28;20551;-67
2022/01/28 09:58:07;;;;;;;8.80;1.35;;;6.50;99.90;;;;;;5021144;28;20552;-67
2022/01/28 10:00:33;;;;;;;5.60;1.10;;;6.50;99.90;;;;;;5013250;28;20042;-68
2022/01/28 10:03:03;;;;;;;9.13;2.45;;;6.60;99.90;;;;;;5021999;28;20516;-67
2022/01/28 10:05:32;;;;;;;23.03;2.23;;;6.60;99.90;;;;;;5022772;28;20040;-68
2022/01/28 10:08:05;;;;;;;9.77;1.48;;;6.60;99.90;;;;;;5012650;28;20037;-67
2022/01/28 10:10:52;;;;;;;11.25;1.50;;;6.70;99.90;;;;;;5022342;28;20041;-68
2022/01/28 10:14:06;;;;;;;4.88;0.60;;;6.70;99.90;;;;;;5008124;28;20038;-68
2022/01/28 10:16:22;;;;;;;15.55;1.45;;;6.80;99.90;;;;;;5017214;28;20041;-68
2022/01/28 10:18:57;;;;;;;7.45;1.30;;;7.00;99.90;;;;;;5013517;28;20049;-65
2022/01/28 10:21:32;;;;;;;9.32;2.15;;;7.00;99.90;;;;;;5011441;28;20138;-68
2022/01/28 10:24:00;;;;;;;12.18;1.42;;;7.10;99.90;;;;;;5021630;28;20034;-68
2022/01/28 10:26:54;;;;;;;16.48;1.63;;;7.10;99.90;;;;;;5022374;28;20026;-68
2022/01/28 10:29:23;;;;;;;9.50;2.33;;;7.20;99.90;;;;;;5003451;28;20037;-65
2022/01/28 10:31:54;;;;;;;13.23;1.42;;;7.20;99.90;;;;;;5005258;28;20041;-68
2022/01/28 10:34:35;;;;;;;10.13;1.08;;;7.30;99.90;;;;;;5003893;28;20040;-68
2022/01/28 10:37:21;;;;;;;8.38;2.67;;;7.40;99.90;;;;;;5019642;28;20038;-68
2022/01/28 10:39:53;;;;;;;7.15;1.85;;;7.40;99.90;;;;;;5007498;28;20029;-68
2022/01/28 10:42:25;;;;;;;9.27;1.10;;;7.50;99.90;;;;;;5016891;28;20064;-68
2022/01/28 10:44:54;;;;;;;6.57;1.50;;;7.60;99.90;;;;;;5012615;28;20053;-68
2022/01/28 10:47:35;;;;;;;7.63;0.65;;;7.60;99.90;;;;;;5022559;28;20037;-68
2022/01/28 10:50:26;;;;;;;13.52;2.13;;;7.70;99.90;;;;;;5022674;28;20124;-68
2022/01/28 10:53:11;;;;;;;9.50;1.17;;;7.70;99.90;;;;;;5011918;28;20564;-68
2022/01/28 10:55:53;;;;;;;6.75;1.05;;;7.80;99.90;;;;;;5019686;28;20137;-66
2022/01/28 10:58:20;;;;;;;13.10;1.73;;;7.80;99.90;;;;;;5009119;28;20034;-67
2022/01/28 11:00:53;;;;;;;7.10;1.05;;;7.80;99.90;;;;;;5022627;28;20033;-69
2022/01/28 11:03:26;;;;;;;11.02;1.42;;;7.90;99.90;;;;;;5011186;28;20042;-67
2022/01/28 11:05:54;;;;;;;6.22;0.90;;;8.00;99.90;;;;;;5011781;28;20034;-68
2022/01/28 11:08:19;;;;;;;10.75;1.30;;;8.20;99.90;;;;;;5013195;28;20037;-68
2022/01/28 11:10:45;;;;;;;7.10;0.65;;;8.40;99.90;;;;;;5010077;28;20030;-68
2022/01/28 11:13:11;;;;;;;12.93;1.27;;;8.80;99.90;;;;;;5022918;28;20550;-68
2022/01/28 11:15:37;;;;;;;6.03;0.93;;;9.00;99.90;;;;;;5009888;28;20030;-68
2022/01/28 11:18:04;;;;;;;6.53;0.50;;;9.00;99.90;;;;;;5022334;28;20079;-68
2022/01/28 11:20:49;;;;;;;4.82;0.55;;;9.00;99.90;;;;;;5009556;28;20043;-68
2022/01/28 11:23:31;;;;;;;7.47;0.85;;;9.10;99.90;;;;;;5019468;28;20049;-68
2022/01/28 11:26:36;;;;;;;10.45;1.05;;;9.00;99.90;;;;;;5013335;28;20048;-68
2022/01/28 11:29:12;;;;;;;5.43;1.23;;;9.00;99.90;;;;;;5003875;28;20038;-68
2022/01/28 11:31:49;;;;;;;7.45;1.30;;;8.90;99.90;;;;;;5018994;28;20029;-68
2022/01/28 11:34:23;;;;;;;8.80;0.57;;;8.70;99.90;;;;;;5007110;28;20089;-68
2022/01/28 11:36:50;;;;;;;17.73;1.48;;;8.60;99.90;;;;;;5004718;28;20478;-67
2022/01/28 11:39:38;;;;;;;11.13;0.90;;;8.70;99.90;;;;;;5009518;28;20167;-68
2022/01/28 11:42:09;;;;;;;10.13;1.30;;;8.80;99.90;;;;;;5014109;28;20065;-68
2022/01/28 11:44:43;;;;;;;8.45;1.85;;;8.80;99.90;;;;;;5018767;28;20107;-68
2022/01/28 11:47:28;;;;;;;6.22;1.17;;;8.80;99.90;;;;;;5004766;28;20458;-68
2022/01/28 11:50:00;;;;;;;18.38;1.08;;;8.80;99.90;;;;;;5019480;28;20075;-68
2022/01/28 11:52:29;;;;;;;10.73;0.80;;;8.70;99.90;;;;;;5018671;28;20033;-68
2022/01/28 11:54:56;;;;;;;14.50;1.10;;;8.70;99.90;;;;;;5010327;28;20093;-68
2022/01/28 11:57:26;;;;;;;9.60;0.57;;;8.70;99.90;;;;;;5006152;28;20124;-68
2022/01/28 12:00:12;;;;;;;12.20;2.08;;;8.60;99.90;;;;;;5019328;28;20125;-68
2022/01/28 12:02:47;;;;;;;7.45;1.08;;;8.60;99.90;;;;;;5013008;28;20033;-68
2022/01/28 12:05:29;;;;;;;6.53;1.10;;;8.60;99.90;;;;;;5009516;28;20748;-68
2022/01/28 12:08:00;;;;;;;8.48;1.40;;;8.60;99.90;;;;;;5019819;28;20124;-67
2022/01/28 12:10:27;;;;;;;;;;;8.60;99.90;;;;;;5020978;28;20077;-68
2022/01/28 12:13:05;;;;;;;10.15;0.57;;;8.60;99.90;;;;;;5019913;28;19921;-68
2022/01/28 12:16:25;;;;;;;12.18;0.85;;;8.50;99.90;;;;;;5012282;28;20037;-68
2022/01/28 12:18:55;;;;;;;5.07;1.27;;;8.50;99.90;;;;;;5013800;28;20038;-70
2022/01/28 12:21:26;;;;;;;8.68;0.93;;;8.40;99.90;;;;;;5019746;28;20033;-68
2022/01/28 12:24:14;;;;;;;9.55;2.03;;;8.50;99.90;;;;;;5009797;28;20046;-68
2022/01/28 12:26:58;;;;;;;6.97;1.00;;;8.60;99.90;;;;;;5016966;28;20030;-65
2022/01/28 12:29:32;;;;;;;9.98;0.75;;;8.70;99.90;;;;;;5006705;28;20474;-68
2022/01/28 12:31:59;;;;;;;7.50;0.88;;;8.80;99.90;;;;;;5000779;28;20091;-68
2022/01/28 12:34:25;;;;;;;7.25;0.75;;;8.90;99.90;;;;;;5006084;28;20449;-68
2022/01/28 12:36:52;;;;;;;4.95;0.52;;;9.10;99.90;;;;;;5022314;28;20037;-68
2022/01/28 12:39:31;;;;;;;9.20;1.08;;;9.00;99.90;;;;;;5022874;28;20501;-68
2022/01/28 12:42:05;;;;;;;20.92;2.60;;;9.00;99.90;;;;;;5026785;28;20033;-68
2022/01/28 12:44:33;;;;;;;11.55;1.20;;;9.00;99.90;;;;;;5011963;28;20037;-68
2022/01/28 12:47:02;;;;;;;7.22;0.82;;;8.90;99.90;;;;;;5021314;28;20041;-68
2022/01/28 12:49:34;;;;;;;11.23;1.63;;;8.90;99.90;;;;;;5020921;28;20026;-68
2022/01/28 12:52:05;;;;;;;7.85;1.42;;;8.90;99.90;;;;;;5023851;28;20276;-68
2022/01/28 12:54:34;;;;;;;11.10;0.90;;;8.80;99.90;;;;;;5024351;28;20026;-68
2022/01/28 12:57:00;;;;;;;14.88;3.15;;;8.80;99.90;;;;;;5014931;28;20417;-67
2022/01/28 12:59:26;;;;;;;14.90;1.65;;;8.70;99.90;;;;;;5012033;28;20026;-68
2022/01/28 13:01:53;;;;;;;14.05;1.50;;;8.70;99.90;;;;;;5022719;28;20046;-68
2022/01/28 13:04:22;;;;;;;10.80;1.92;;;8.60;99.90;;;;;;5020223;28;20045;-68
2022/01/28 13:09:16;;;;;;;9.23;1.20;;;8.50;99.90;;;;;;5022277;28;20520;-68
2022/01/28 13:11:45;;;;;;;5.70;0.95;;;8.60;99.90;;;;;;5023623;28;20551;-68
2022/01/28 13:14:13;;;;;;;8.60;1.92;;;8.60;99.90;;;;;;5020651;28;20040;-68
2022/01/28 13:16:45;;;;;;;8.40;1.00;;;8.70;99.90;;;;;;5021358;28;20036;-69
2022/01/28 13:19:13;;;;;;;7.15;1.10;;;8.70;99.90;;;;;;5023007;28;20048;-68
2022/01/28 13:21:41;;;;;;;14.48;1.30;;;8.70;99.90;;;;;;5010826;28;20041;-70
2022/01/28 13:24:08;;;;;;;12.40;1.75;;;8.90;99.90;;;;;;5020678;28;20061;-68
2022/01/28 13:26:35;;;;;;;8.90;1.15;;;8.90;99.90;;;;;;5023933;28;20119;-68
2022/01/28 13:29:06;;;;;;;6.63;1.10;;;8.90;99.90;;;;;;5010754;28;20046;-68
2022/01/28 13:31:31;;;;;;;11.73;1.85;;;8.90;99.90;;;;;;5024046;28;20033;-68
2022/01/28 13:33:58;;;;;;;9.30;2.35;;;8.90;99.90;;;;;;5019829;28;20385;-67
2022/01/28 13:36:24;;;;;;;7.03;1.13;;;8.90;99.90;;;;;;5023628;28;20026;-68
2022/01/28 13:38:51;;;;;;;13.52;1.75;;;8.80;99.90;;;;;;5021990;28;20136;-68
2022/01/28 13:41:23;;;;;;;10.00;1.13;;;8.70;99.90;;;;;;5012916;28;20064;-68
2022/01/28 13:43:48;;;;;;;8.23;1.55;;;8.70;99.90;;;;;;5020528;28;20057;-70
2022/01/28 13:46:14;;;;;;;6.90;1.75;;;8.60;99.90;;;;;;5012760;28;20127;-68
2022/01/28 13:48:41;;;;;;;7.03;1.80;;;8.60;99.90;;;;;;5011533;28;20100;-68
2022/01/28 13:51:20;;;;;;;14.35;1.50;;;8.50;99.90;;;;;;5022489;28;20033;-68
2022/01/28 13:56:44;;;;;;;10.85;2.03;;;8.40;99.90;;;;;;5020400;28;20053;-68
2022/01/28 13:59:24;;;;;;;12.98;1.63;;;8.40;99.90;;;;;;5019155;28;20038;-68
2022/01/28 14:01:52;;;;;;;22.50;3.40;;;8.50;99.90;;;;;;5006134;28;20048;-70
2022/01/28 14:04:24;;;;;;;14.65;1.75;;;8.50;99.90;;;;;;5021484;28;20429;-68
2022/01/28 14:07:06;;;;;;;12.32;1.67;;;8.50;99.90;;;;;;5002313;28;20052;-68
2022/01/28 14:09:45;;;;;;;7.22;1.52;;;8.50;99.90;;;;;;5018066;28;20040;-68
2022/01/28 14:12:25;;;;;;;9.63;1.90;;;8.50;99.90;;;;;;5016828;28;20034;-68
2022/01/28 14:14:51;;;;;;;6.32;1.60;;;8.50;99.90;;;;;;5020269;28;20128;-68
2022/01/28 14:17:17;;;;;;;10.52;1.95;;;8.50;99.90;;;;;;5021708;28;20034;-68
2022/01/28 14:19:44;;;;;;;6.90;1.20;;;8.50;99.90;;;;;;5004955;28;20042;-67
2022/01/28 14:22:12;;;;;;;8.82;1.73;;;8.30;99.90;;;;;;5021350;28;20053;-68
2022/01/28 14:24:44;;;;;;;6.88;2.00;;;8.30;99.90;;;;;;5010762;28;20037;-68
2022/01/28 14:27:35;;;;;;;7.63;1.38;;;8.30;99.90;;;;;;5012259;28;20060;-67
2022/01/28 14:30:16;;;;;;;15.27;2.20;;;8.30;99.90;;;;;;5021000;28;20049;-67
2022/01/28 14:32:42;;;;;;;7.93;1.25;;;8.30;99.90;;;;;;5021108;28;20041;-68
2022/01/28 14:35:08;;;;;;;5.07;1.48;;;8.20;99.90;;;;;;5012030;28;20037;-68